Flight Track Log - Related Links

Times and Time Zones

All times are in EDT time to prevent confusion due to time zone crossing. See the SLI534 flight status page for this flight to view local times or setup timezone preferences in your user account.

Time Position Orientation Groundspeed Altitude Reporting Facility
EDT Latitude Longitude Course Direction KTS MPH feet Rate Location/Type
Sat 05:47:00 PM 20.8179 -90.5480 262° West  Level Estimated
Sat 05:48:00 PM 20.8043 -90.6468 262° West  Level Estimated
Sat 05:49:00 PM 20.7908 -90.7457 262° West  Level Estimated
Sat 05:50:00 PM 20.7771 -90.8445 262° West  Level Estimated
Sat 05:51:00 PM 20.7635 -90.9432 262° West  Level Estimated
Sat 05:52:00 PM 20.7497 -91.0420 262° West  Level Estimated
Sat 05:53:00 PM 20.7359 -91.1408 262° West  Level Estimated
Sat 05:54:00 PM 20.7221 -91.2395 261° West  Level Estimated
Sat 05:55:00 PM 20.7082 -91.3382 261° West  Level Estimated
Sat 05:56:00 PM 20.6942 -91.4369 261° West  Level Estimated
Sat 05:57:00 PM 20.6801 -91.5356 261° West  Level Estimated
Sat 05:58:00 PM 20.6661 -91.6342 261° West  Level Estimated
Sat 05:59:00 PM 20.6519 -91.7329 261° West  Level Estimated
Sat 06:00:00 PM 20.6377 -91.8315 261° West  Level Estimated
Sat 06:01:00 PM 20.6235 -91.9301 261° West  Level Estimated
Sat 06:02:00 PM 20.6092 -92.0287 261° West  Level Estimated
Sat 06:03:00 PM 20.5948 -92.1272 261° West  Level Estimated
Sat 06:04:00 PM 20.5804 -92.2258 261° West  Level Estimated
Sat 06:05:00 PM 20.5659 -92.3243 261° West  Level Estimated
Sat 06:06:00 PM 20.5514 -92.4228 261° West  Level Estimated
Sat 06:07:00 PM 20.5368 -92.5213 261° West  Level Estimated
Sat 06:08:00 PM 20.5222 -92.6198 261° West  Level Estimated
Sat 06:09:00 PM 20.5075 -92.7182 261° West  Level Estimated
Sat 06:10:00 PM 20.4927 -92.8167 261° West  Level Estimated
Sat 06:11:00 PM 20.4779 -92.9151 261° West  Level Estimated
Sat 06:12:00 PM 20.4631 -93.0135 261° West  Level Estimated
Sat 06:13:00 PM 20.4481 -93.1118 261° West  Level Estimated
Sat 06:14:00 PM 20.4332 -93.2102 261° West  Level Estimated
Sat 06:15:00 PM 20.4181 -93.3085 261° West  Level Estimated
Sat 06:16:00 PM 20.4031 -93.4069 261° West  Level Estimated
Sat 06:17:00 PM 20.3879 -93.5052 261° West  Level Estimated
Sat 06:18:00 PM 20.3727 -93.6034 261° West  Level Estimated
Sat 06:19:00 PM 20.3575 -93.7017 261° West  Level Estimated
Sat 06:20:00 PM 20.3422 -93.7999 261° West  Level Estimated
Sat 06:21:00 PM 20.3268 -93.8982 261° West  Level Estimated
Sat 06:22:00 PM 20.3114 -93.9964 261° West  Level Estimated
Sat 06:23:00 PM 20.2959 -94.0946 260° West  Level Estimated
Sat 06:24:00 PM 20.2804 -94.1927 260° West  Level Estimated
Sat 06:25:00 PM 20.2648 -94.2908 260° West  Level Estimated
Sat 06:26:00 PM 20.2492 -94.3890 260° West  Level Estimated
Sat 06:27:00 PM 20.2335 -94.4871 260° West  Level Estimated
Sat 06:28:00 PM 20.2178 -94.5852 260° West  Level Estimated
Sat 06:29:00 PM 20.2020 -94.6832 260° West  Level Estimated
Sat 06:30:00 PM 20.1861 -94.7812 260° West  Level Estimated
Sat 06:31:00 PM 20.1702 -94.8793 260° West  Level Estimated
Sat 06:32:00 PM 20.1543 -94.9773 260° West  Level Estimated
Sat 06:33:00 PM 20.1383 -95.0752 260° West  Level Estimated
Sat 06:34:00 PM 20.1222 -95.1732 260° West  Level Estimated
Sat 06:35:00 PM 20.1061 -95.2711 260° West  Level Estimated
Sat 06:36:00 PM 20.0899 -95.3691 260° West  Level Estimated
Sat 06:37:00 PM 20.0737 -95.4670 260° West  Level Estimated
Sat 06:38:00 PM 20.0574 -95.5648 260° West  Level Estimated
Sat 06:39:00 PM 20.0410 -95.6627 260° West  Level Estimated
Sat 06:40:00 PM 20.0247 -95.7606 260° West  Level Estimated
Sat 06:41:00 PM 20.0082 -95.8584 260° West  Level Estimated
Sat 06:42:00 PM 19.9917 -95.9562 260° West  Level Estimated
Sat 06:43:00 PM 19.9752 -96.0539 260° West  Level Estimated
Sat 06:44:00 PM 19.9586 -96.1517 260° West  Level Estimated
Sat 06:45:00 PM 19.9419 -96.2495 260° West  Level Estimated
Sat 06:46:00 PM 19.9252 -96.3472 260° West  Level Estimated
Sat 06:47:00 PM 19.9084 -96.4449 260° West  Level Estimated
Sat 06:48:00 PM 19.8916 -96.5425 260° West  Level Estimated
Sat 06:49:00 PM 19.8747 -96.6402 260° West  Level Estimated
Sat 06:50:00 PM 19.8578 -96.7378 260° West  Level Estimated
Sat 06:51:00 PM 19.8408 -96.8355 260° West  Level Estimated
Sat 06:52:00 PM 19.8238 -96.9331 260° West  Level Estimated
Sat 06:53:00 PM 19.8067 -97.0306 259° West  Level Estimated
Sat 06:54:00 PM 19.7896 -97.1282 259° West  Level Estimated
Sat 06:55:00 PM 19.7724 -97.2257 259° West  Level Estimated
Sat 06:56:00 PM 19.7551 -97.3232 259° West  Level Estimated
Sat 06:57:00 PM 19.7378 -97.4207 259° West  Level Estimated
Sat 06:58:00 PM 19.7205 -97.5182 259° West  Level Estimated
Sat 06:59:00 PM 19.7031 -97.6156 259° West  Level Estimated
Sat 07:00:00 PM 19.6856 -97.7131 259° West  Level Estimated
Sat 07:01:00 PM 19.6681 -97.8105 259° West  Level Estimated
Sat 07:02:00 PM 19.6506 -97.9078 259° West  Level Estimated
Sat 07:03:00 PM 19.6330 -98.0052 259° West  Level Estimated
Sat 07:04:00 PM 19.6153 -98.1025 259° West  Level Estimated
Sat 07:05:00 PM 19.5976 -98.1999 259° West  Level Estimated
Sat 07:06:00 PM 19.5798 -98.2972 259° West  Level Estimated
Sat 07:07:00 PM 19.5620 -98.3944 259° West  Level Estimated
Sat 07:08:00 PM 19.5441 -98.4917 259° West  Level Estimated
Sat 07:09:00 PM 19.5262 -98.5889 259° West  Level Estimated
Sat 07:10:00 PM 19.5082 -98.6861 259° West  Level Estimated
Sat 07:11:00 PM 19.4902 -98.7833 259° West  Level Estimated
Sat 07:12:00 PM 19.4721 -98.8805 259° West  Level Estimated
Sat 07:13:00 PM 19.4540 -98.9776 259° West  Level Estimated
Sat 07:14:00 PM 19.4363 -99.0721 259° West  Level Estimated
Sat 07:15:00 PM 19.4363 -99.0721 43° Northeast  Level Estimated
Sat 07:16:00 PM 19.4363 -99.0721 43° Northeast  Level Estimated
Sat 07:17:00 PM 19.4363 -99.0721 43° Northeast  Level Estimated

Login

Don't have an account? Register now (free) for customized features, flight alerts, and more!